createdAt,value
2022-10-06T00:02:21.686Z,101322.44
2022-10-06T00:04:48.482Z,101298.50
2022-10-06T00:07:15.918Z,101328.50
2022-10-06T00:09:42.781Z,101317.63
2022-10-06T00:12:09.817Z,101327.00
2022-10-06T00:14:36.977Z,101326.19
2022-10-06T00:17:04.038Z,101322.22
2022-10-06T00:19:31.379Z,101326.94
2022-10-06T00:21:58.218Z,101327.84
2022-10-06T00:24:25.102Z,101318.69
2022-10-06T00:26:51.957Z,101323.16
2022-10-06T00:29:18.977Z,101329.31
2022-10-06T00:31:46.073Z,101325.03
2022-10-06T00:34:13.198Z,101324.53
2022-10-06T00:36:40.216Z,101321.59
2022-10-06T00:39:07.017Z,101309.22
2022-10-06T00:41:33.900Z,101321.72
2022-10-06T00:44:01.917Z,101317.88
2022-10-06T00:46:49.118Z,101325.47
2022-10-06T00:49:28.149Z,101326.31
2022-10-06T00:51:57.746Z,101316.50
2022-10-06T00:54:24.580Z,101316.72
2022-10-06T00:56:51.459Z,101326.72
2022-10-06T00:59:18.756Z,101331.22
2022-10-06T01:02:13.561Z,101329.22
2022-10-06T01:04:41.980Z,101328.06
2022-10-06T01:07:09.537Z,101321.72
2022-10-06T01:09:36.757Z,101311.63
2022-10-06T01:12:04.360Z,101311.09
2022-10-06T01:14:31.277Z,101305.44
2022-10-06T01:17:22.118Z,101302.97
2022-10-06T01:20:17.566Z,101308.69
2022-10-06T01:23:00.755Z,101294.41
2022-10-06T01:25:28.356Z,101298.78
2022-10-06T01:27:55.401Z,101296.91
2022-10-06T01:30:43.922Z,101313.81
2022-10-06T01:33:10.830Z,101306.69
2022-10-06T01:35:38.039Z,101317.75
2022-10-06T01:38:04.957Z,101309.84
2022-10-06T01:40:31.836Z,101312.31
2022-10-06T01:42:58.619Z,101312.94
2022-10-06T01:45:25.501Z,101304.72
2022-10-06T01:47:52.964Z,101313.06
2022-10-06T01:50:19.957Z,101284.09
2022-10-06T01:52:46.822Z,101309.94
2022-10-06T01:55:14.700Z,101304.50
2022-10-06T01:57:42.038Z,101309.84
2022-10-06T02:00:09.897Z,101302.94
2022-10-06T02:02:36.677Z,101315.88
2022-10-06T02:05:03.996Z,101297.41
2022-10-06T02:07:30.801Z,101315.88
2022-10-06T02:09:57.718Z,101324.53
2022-10-06T02:12:24.558Z,101315.88
2022-10-06T02:14:51.348Z,101312.53
2022-10-06T02:17:18.177Z,101318.56
2022-10-06T02:19:44.938Z,101320.97
2022-10-06T02:22:11.783Z,101320.88
2022-10-06T02:24:38.618Z,101315.66
2022-10-06T02:27:06.058Z,101309.72
2022-10-06T02:29:32.918Z,101309.94
2022-10-06T02:31:59.897Z,101315.03
2022-10-06T02:34:27.098Z,101316.38
2022-10-06T02:36:54.263Z,101313.25
2022-10-06T02:39:21.096Z,101323.97
2022-10-06T02:41:47.937Z,101327.53
2022-10-06T02:44:15.039Z,101328.56
2022-10-06T02:46:41.968Z,101326.69
2022-10-06T02:49:08.836Z,101329.94
2022-10-06T02:51:35.697Z,101335.13
2022-10-06T02:54:02.560Z,101334.94
2022-10-06T02:56:29.359Z,101324.72
2022-10-06T02:58:56.176Z,101323.63
2022-10-06T03:01:24.571Z,101315.94
2022-10-06T03:03:51.480Z,101320.81
2022-10-06T03:06:22.792Z,101318.22
2022-10-06T03:08:53.457Z,101338.50
2022-10-06T03:11:21.658Z,101336.56
2022-10-06T03:13:49.989Z,101333.91
2022-10-06T03:16:30.528Z,101334.91
2022-10-06T03:18:57.480Z,101345.59
2022-10-06T03:21:26.207Z,101337.28
2022-10-06T03:23:53.678Z,101334.78
2022-10-06T03:26:22.337Z,101338.56
2022-10-06T03:28:49.289Z,101337.84
2022-10-06T03:31:16.240Z,101333.69
2022-10-06T03:33:43.199Z,101334.84
2022-10-06T03:36:17.537Z,101336.63
2022-10-06T03:38:44.399Z,101345.38
2022-10-06T03:41:15.918Z,101337.16
2022-10-06T03:43:43.546Z,101352.50
2022-10-06T03:46:11.473Z,101352.78
2022-10-06T03:48:38.357Z,101354.16
2022-10-06T03:51:07.458Z,101356.38
2022-10-06T03:53:34.800Z,101342.28
2022-10-06T03:56:06.038Z,101356.50
2022-10-06T03:58:34.258Z,101357.72
2022-10-06T04:01:02.244Z,101363.28
2022-10-06T04:03:29.576Z,101351.78
2022-10-06T04:05:57.160Z,101357.94
2022-10-06T04:08:24.599Z,101352.09
2022-10-06T04:10:51.484Z,101331.78
2022-10-06T04:13:18.958Z,101358.75
2022-10-06T04:15:45.978Z,101342.53
2022-10-06T04:18:13.457Z,101352.84
2022-10-06T04:20:40.417Z,101354.75
2022-10-06T04:23:07.441Z,101368.84
2022-10-06T04:25:34.519Z,101360.50
2022-10-06T04:28:01.457Z,101365.34
2022-10-06T04:30:28.987Z,101366.00
2022-10-06T04:32:55.837Z,101366.66
2022-10-06T04:35:23.397Z,101360.53
2022-10-06T04:37:50.419Z,101365.75
2022-10-06T04:40:17.298Z,101373.97
2022-10-06T04:42:45.303Z,101365.06
2022-10-06T04:45:12.119Z,101368.31
2022-10-06T04:47:38.976Z,101365.13
2022-10-06T04:50:06.229Z,101374.16
2022-10-06T04:52:33.058Z,101365.41
2022-10-06T04:54:59.856Z,101369.97
2022-10-06T04:57:26.698Z,101368.19
2022-10-06T05:00:14.881Z,101359.78
2022-10-06T05:02:42.108Z,101368.66
2022-10-06T05:05:09.199Z,101372.50
2022-10-06T05:07:36.082Z,101364.78
2022-10-06T05:10:02.979Z,101378.47
2022-10-06T05:12:31.185Z,101379.84
2022-10-06T05:14:58.340Z,101391.28
2022-10-06T05:17:25.242Z,101380.09
2022-10-06T05:19:52.020Z,101389.56
2022-10-06T05:22:18.880Z,101400.47
2022-10-06T05:24:45.860Z,101391.47
2022-10-06T05:27:13.100Z,101401.97
2022-10-06T05:29:40.021Z,101394.59
2022-10-06T05:32:06.855Z,101407.03
2022-10-06T05:34:33.723Z,101404.78
2022-10-06T05:37:00.544Z,101412.78
2022-10-06T05:39:27.424Z,101413.38
2022-10-06T05:41:54.300Z,101428.44
2022-10-06T05:44:21.221Z,101423.38
2022-10-06T05:46:48.100Z,101432.94
2022-10-06T05:49:14.963Z,101441.81
2022-10-06T05:51:41.778Z,101445.44
2022-10-06T05:54:08.692Z,101439.81
2022-10-06T05:56:37.050Z,101447.72
2022-10-06T05:59:04.258Z,101446.31
2022-10-06T06:01:35.213Z,101461.69
2022-10-06T06:04:04.361Z,101459.63
2022-10-06T06:06:38.565Z,101461.28
2022-10-06T06:09:15.996Z,101471.84
2022-10-06T06:11:47.778Z,101490.69
2022-10-06T06:14:17.041Z,101478.50
2022-10-06T06:16:44.693Z,101481.47
2022-10-06T06:19:12.521Z,101474.69
2022-10-06T06:21:39.517Z,101480.97
2022-10-06T06:24:06.419Z,101488.66
2022-10-06T06:26:35.096Z,101487.78
2022-10-06T06:29:05.431Z,101491.13
2022-10-06T06:31:37.037Z,101508.63
2022-10-06T06:34:05.120Z,101498.25
2022-10-06T06:36:37.013Z,101516.44
2022-10-06T06:39:05.517Z,101515.47
2022-10-06T06:41:33.716Z,101527.63
2022-10-06T06:44:00.618Z,101529.59
2022-10-06T06:46:28.553Z,101528.13
2022-10-06T06:48:55.676Z,101545.28
2022-10-06T06:51:24.319Z,101547.31
2022-10-06T06:53:51.828Z,101540.22
2022-10-06T06:56:18.779Z,101552.84
2022-10-06T06:58:49.124Z,101551.66
2022-10-06T07:01:17.848Z,101549.88
2022-10-06T07:04:03.632Z,101554.50
2022-10-06T07:06:30.947Z,101554.41
2022-10-06T07:08:58.873Z,101551.13
2022-10-06T07:11:35.777Z,101553.22
2022-10-06T07:14:04.678Z,101554.34
2022-10-06T07:16:50.617Z,101557.78
2022-10-06T07:19:36.838Z,101558.09
2022-10-06T07:22:30.960Z,101562.69
2022-10-06T07:25:08.545Z,101568.81
2022-10-06T07:27:37.138Z,101578.94
2022-10-06T07:30:05.429Z,101580.25
2022-10-06T07:32:32.717Z,101578.41
2022-10-06T07:34:59.540Z,101573.06
2022-10-06T07:37:27.078Z,101575.69
2022-10-06T07:39:53.896Z,101603.31
2022-10-06T07:42:20.839Z,101604.84
2022-10-06T07:45:06.439Z,101609.72
2022-10-06T07:47:33.458Z,101615.72
2022-10-06T07:50:00.497Z,101638.09
2022-10-06T07:52:30.296Z,101632.56
2022-10-06T07:54:58.499Z,101637.59
2022-10-06T07:57:34.662Z,101639.16
2022-10-06T08:00:08.278Z,101650.03
2022-10-06T08:02:36.096Z,101647.47
2022-10-06T08:05:04.358Z,101653.13
2022-10-06T08:07:31.243Z,101647.34
2022-10-06T08:09:58.424Z,101656.53
2022-10-06T08:12:34.476Z,101653.97
2022-10-06T08:15:06.863Z,101659.84
2022-10-06T08:17:35.538Z,101675.81
2022-10-06T08:20:02.380Z,101669.53
2022-10-06T08:22:30.217Z,101671.44
2022-10-06T08:25:05.733Z,101686.47
2022-10-06T08:27:35.169Z,101677.88
2022-10-06T08:30:02.497Z,101678.94
2022-10-06T08:32:30.079Z,101688.28
2022-10-06T08:34:57.578Z,101694.03
2022-10-06T08:37:26.916Z,101694.56
2022-10-06T08:39:54.527Z,101701.06
2022-10-06T08:42:42.617Z,101699.25
2022-10-06T08:45:17.366Z,101715.31
2022-10-06T08:47:56.580Z,101736.84
2022-10-06T08:50:24.779Z,101726.09
2022-10-06T08:53:06.739Z,101729.59
2022-10-06T08:55:48.378Z,101744.75
2022-10-06T08:58:20.538Z,101753.34
2022-10-06T09:00:47.338Z,101759.16
2022-10-06T09:03:24.232Z,101774.44
2022-10-06T09:05:52.877Z,101763.38
2022-10-06T09:08:32.344Z,101785.91
2022-10-06T09:11:17.500Z,101775.25
2022-10-06T09:14:01.217Z,101798.63
2022-10-06T09:16:30.322Z,101802.72
2022-10-06T09:19:35.301Z,101805.00
2022-10-06T09:22:02.431Z,101805.72
2022-10-06T09:24:38.391Z,101804.50
2022-10-06T09:27:32.417Z,101810.34
2022-10-06T09:30:01.197Z,101812.53
2022-10-06T09:32:28.678Z,101805.88
2022-10-06T09:34:57.016Z,101808.16
2022-10-06T09:37:23.897Z,101809.03
2022-10-06T09:39:51.382Z,101803.69
2022-10-06T09:42:26.017Z,101827.25
2022-10-06T09:44:56.398Z,101814.09
2022-10-06T09:47:29.160Z,101829.94
2022-10-06T09:50:20.657Z,101836.25
2022-10-06T09:53:05.519Z,101845.63
2022-10-06T09:55:38.196Z,101848.25
2022-10-06T09:58:34.721Z,101856.88
2022-10-06T10:01:09.271Z,101876.09
2022-10-06T10:04:01.941Z,101879.69
2022-10-06T10:06:34.639Z,101895.91
2022-10-06T10:09:34.502Z,101885.00
2022-10-06T10:12:31.315Z,101894.78
2022-10-06T10:15:22.277Z,101896.44
2022-10-06T10:17:57.277Z,101897.72
2022-10-06T10:20:39.639Z,101905.50
2022-10-06T10:23:31.909Z,101907.13
2022-10-06T10:26:02.057Z,101900.75
2022-10-06T10:28:53.578Z,101910.66
2022-10-06T10:31:39.224Z,101914.69
2022-10-06T10:34:25.062Z,101940.50
2022-10-06T10:37:04.325Z,101933.03
2022-10-06T10:39:37.961Z,101928.66
2022-10-06T10:42:09.799Z,101942.31
2022-10-06T10:44:38.377Z,101933.50
2022-10-06T10:47:27.517Z,101935.94
2022-10-06T10:50:06.979Z,101933.63
2022-10-06T10:52:41.437Z,101939.72
2022-10-06T10:55:35.036Z,101942.91
2022-10-06T10:58:11.595Z,101943.72
2022-10-06T11:00:39.785Z,101956.69
2022-10-06T11:03:08.297Z,101961.00
2022-10-06T11:05:52.857Z,101962.47
2022-10-06T11:08:40.479Z,101977.19
2022-10-06T11:11:23.317Z,101985.44
2022-10-06T11:13:52.639Z,101999.94
2022-10-06T11:16:29.772Z,102017.28
2022-10-06T11:19:15.179Z,102005.22
2022-10-06T11:21:52.317Z,102006.25
2022-10-06T11:24:43.878Z,101997.44
2022-10-06T11:27:36.939Z,101996.88
2022-10-06T11:30:18.446Z,102006.78
2022-10-06T11:33:11.919Z,101991.47
2022-10-06T11:35:40.161Z,101988.69
2022-10-06T11:38:25.698Z,102001.09
2022-10-06T11:41:14.045Z,101998.69
2022-10-06T11:44:03.662Z,101994.25
2022-10-06T11:46:50.121Z,101990.75
2022-10-06T11:49:36.498Z,101997.28
2022-10-06T11:52:08.198Z,101991.75
2022-10-06T11:54:58.114Z,102007.78
2022-10-06T11:57:30.916Z,102017.47
2022-10-06T12:00:16.605Z,102013.59
2022-10-06T12:02:44.903Z,102020.16
2022-10-06T12:05:55.173Z,102020.88
2022-10-06T12:08:00.576Z,102026.09
2022-10-06T12:10:30.051Z,102034.50
2022-10-06T12:13:40.008Z,102049.50
2022-10-06T12:19:34.062Z,102039.09
2022-10-06T12:22:01.479Z,102054.19
2022-10-06T12:24:38.186Z,102038.56
2022-10-06T12:27:10.936Z,102042.59
2022-10-06T12:29:38.220Z,102044.56
2022-10-06T12:32:09.279Z,102057.25
2022-10-06T12:35:03.618Z,102060.13
2022-10-06T12:37:34.501Z,102070.69
2022-10-06T12:40:59.718Z,102065.03
2022-10-06T12:43:36.399Z,102065.25
2022-10-06T12:46:12.583Z,102075.00
2022-10-06T12:49:17.218Z,102079.88
2022-10-06T12:51:44.981Z,102061.09
2022-10-06T12:54:23.998Z,102080.75
2022-10-06T12:57:14.140Z,102083.25
2022-10-06T12:59:41.321Z,102085.16
2022-10-06T13:02:09.382Z,102074.34
2022-10-06T13:04:37.763Z,102095.88
2022-10-06T13:07:29.578Z,102099.69
2022-10-06T13:10:14.710Z,102099.31
2022-10-06T13:12:42.558Z,102111.41
2022-10-06T13:15:10.896Z,102107.00
2022-10-06T13:17:49.120Z,102102.66
2022-10-06T13:20:40.181Z,102093.69
2022-10-06T13:23:25.439Z,102112.91
2022-10-06T13:25:59.778Z,102117.50
2022-10-06T13:28:34.495Z,102115.84
2022-10-06T13:31:33.997Z,102120.31
2022-10-06T13:34:10.981Z,102124.50
2022-10-06T13:36:41.738Z,102123.16
2022-10-06T13:39:15.640Z,102135.44
2022-10-06T13:42:01.249Z,102143.53
2022-10-06T13:44:31.280Z,102141.97
2022-10-06T13:47:01.297Z,102141.50
2022-10-06T13:49:30.339Z,102148.78
2022-10-06T13:52:03.215Z,102153.19
2022-10-06T13:54:46.551Z,102142.53
2022-10-06T13:57:40.768Z,102149.34
2022-10-06T14:00:44.918Z,102163.94
2022-10-06T14:03:19.653Z,102183.53
2022-10-06T14:05:46.564Z,102176.38
2022-10-06T14:08:13.278Z,102192.47
2022-10-06T14:10:47.993Z,102194.97
2022-10-06T14:13:22.319Z,102192.63
2022-10-06T14:15:56.301Z,102191.47
2022-10-06T14:18:36.778Z,102205.81
2022-10-06T14:21:41.920Z,102203.44
2022-10-06T14:24:28.469Z,102200.88
2022-10-06T14:27:00.219Z,102210.31
2022-10-06T14:29:27.053Z,102202.75
2022-10-06T14:31:53.861Z,102215.69
2022-10-06T14:34:21.503Z,102213.09
2022-10-06T14:36:52.629Z,102230.03
2022-10-06T14:39:19.732Z,102223.13
2022-10-06T14:41:46.576Z,102232.06
2022-10-06T14:44:15.651Z,102236.88
2022-10-06T14:46:44.285Z,102237.06
2022-10-06T14:49:12.488Z,102247.81
2022-10-06T14:51:40.033Z,102249.50
2022-10-06T14:54:07.808Z,102249.41
2022-10-06T14:56:35.232Z,102243.41
2022-10-06T14:59:05.459Z,102259.88
2022-10-06T15:01:33.661Z,102256.69
2022-10-06T15:04:11.392Z,102255.59
2022-10-06T15:06:56.887Z,102266.84
2022-10-06T15:09:23.954Z,102265.72
2022-10-06T15:11:51.868Z,102267.13
2022-10-06T15:14:18.740Z,102274.75
2022-10-06T15:16:45.633Z,102277.25
2022-10-06T15:19:12.782Z,102283.22
2022-10-06T15:21:40.463Z,102298.09
2022-10-06T15:24:07.896Z,102291.69
2022-10-06T15:26:53.336Z,102304.59
2022-10-06T15:29:20.139Z,102293.31
2022-10-06T15:31:52.224Z,102293.28
2022-10-06T15:34:20.797Z,102313.94
2022-10-06T15:36:48.210Z,102321.13
2022-10-06T15:39:18.412Z,102308.63
2022-10-06T15:41:45.680Z,102316.47
2022-10-06T15:44:12.733Z,102319.06
2022-10-06T15:46:44.541Z,102312.78
2022-10-06T15:49:19.951Z,102320.63
2022-10-06T15:51:49.150Z,102323.31
2022-10-06T15:54:19.677Z,102340.47
2022-10-06T15:56:47.849Z,102325.22
2022-10-06T15:59:15.469Z,102345.03
2022-10-06T16:01:47.652Z,102343.41
2022-10-06T16:04:31.969Z,102351.47
2022-10-06T16:06:59.002Z,102369.44
2022-10-06T16:09:30.452Z,102357.38
2022-10-06T16:11:58.315Z,102367.47
2022-10-06T16:14:25.268Z,102363.28
2022-10-06T16:16:52.288Z,102369.88
2022-10-06T16:19:19.170Z,102382.91
2022-10-06T16:21:49.256Z,102388.06
2022-10-06T16:24:17.367Z,102394.53
2022-10-06T16:26:44.468Z,102398.81
2022-10-06T16:29:12.470Z,102400.34
2022-10-06T16:31:39.418Z,102407.03
2022-10-06T16:34:06.691Z,102388.84
2022-10-06T16:36:33.567Z,102412.63
2022-10-06T16:39:00.377Z,102413.19
2022-10-06T16:41:27.292Z,102414.84
2022-10-06T16:43:54.390Z,102416.13
2022-10-06T16:46:25.447Z,102422.91
2022-10-06T16:48:54.245Z,102414.97
2022-10-06T16:51:25.189Z,102408.28
2022-10-06T16:53:59.569Z,102409.19
2022-10-06T16:56:34.168Z,102420.41
2022-10-06T16:59:04.788Z,102432.53
2022-10-06T17:01:34.537Z,102439.19
2022-10-06T17:04:12.118Z,102436.38
2022-10-06T17:06:40.748Z,102445.63
2022-10-06T17:09:08.774Z,102454.69
2022-10-06T17:11:35.951Z,102449.38
2022-10-06T17:14:03.310Z,102445.63
2022-10-06T17:16:31.864Z,102456.31
2022-10-06T17:18:58.857Z,102460.81
2022-10-06T17:21:44.973Z,102457.88
2022-10-06T17:24:13.010Z,102455.25
2022-10-06T17:26:41.312Z,102455.66
2022-10-06T17:29:12.993Z,102462.19
2022-10-06T17:31:41.920Z,102461.13
2022-10-06T17:34:18.199Z,102466.47
2022-10-06T17:36:48.974Z,102460.81
2022-10-06T17:39:20.736Z,102474.78
2022-10-06T17:41:48.591Z,102468.47
2022-10-06T17:44:23.286Z,102487.00
2022-10-06T17:46:52.016Z,102479.66
2022-10-06T17:49:22.669Z,102483.44
2022-10-06T17:51:50.049Z,102483.09
2022-10-06T17:54:19.927Z,102484.34
2022-10-06T17:56:50.948Z,102490.81
2022-10-06T17:59:22.625Z,102486.06
2022-10-06T18:01:51.471Z,102487.75
2022-10-06T18:04:18.909Z,102492.16
2022-10-06T18:06:46.315Z,102492.25
2022-10-06T18:09:13.373Z,102494.31
2022-10-06T18:11:43.649Z,102492.00
2022-10-06T18:14:14.175Z,102493.34
2022-10-06T18:16:43.170Z,102498.97
2022-10-06T18:19:33.807Z,102496.72
2022-10-06T18:22:02.855Z,102493.13
2022-10-06T18:24:30.889Z,102508.19
2022-10-06T18:26:58.589Z,102513.78
2022-10-06T18:29:28.991Z,102508.28
2022-10-06T18:32:05.040Z,102509.34
2022-10-06T18:37:29.651Z,102520.53
2022-10-06T18:39:57.163Z,102501.56
2022-10-06T18:42:24.774Z,102508.75
2022-10-06T18:45:10.111Z,102511.53
2022-10-06T18:47:55.270Z,102525.63
2022-10-06T18:50:22.476Z,102517.03
2022-10-06T18:52:49.291Z,102529.19
2022-10-06T18:55:17.236Z,102529.47
2022-10-06T18:57:45.343Z,102535.97
2022-10-06T19:00:12.947Z,102542.41
2022-10-06T19:02:39.748Z,102538.38
2022-10-06T19:05:06.840Z,102533.69
2022-10-06T19:07:34.312Z,102535.63
2022-10-06T19:10:01.110Z,102534.97
2022-10-06T19:12:28.030Z,102540.47
2022-10-06T19:14:55.705Z,102550.16
2022-10-06T19:17:24.402Z,102549.47
2022-10-06T19:19:51.710Z,102547.13
2022-10-06T19:22:21.702Z,102544.38
2022-10-06T19:24:48.711Z,102559.03
2022-10-06T19:27:24.496Z,102555.16
2022-10-06T19:29:53.248Z,102558.88
2022-10-06T19:32:22.292Z,102551.47
2022-10-06T19:34:49.148Z,102557.53
2022-10-06T19:37:17.390Z,102548.84
2022-10-06T19:39:45.808Z,102546.72
2022-10-06T19:42:34.968Z,102560.41
2022-10-06T19:45:02.171Z,102566.47
2022-10-06T19:47:29.249Z,102554.56
2022-10-06T19:50:02.144Z,102571.09
2022-10-06T19:52:31.466Z,102564.50
2022-10-06T19:54:58.576Z,102577.16
2022-10-06T19:57:28.610Z,102582.38
2022-10-06T19:59:55.536Z,102567.13
2022-10-06T20:02:22.392Z,102578.00
2022-10-06T20:04:50.509Z,102583.22
2022-10-06T20:07:21.630Z,102581.34
2022-10-06T20:09:48.632Z,102577.91
2022-10-06T20:12:18.714Z,102576.56
2022-10-06T20:14:46.632Z,102580.44
2022-10-06T20:17:13.428Z,102588.19
2022-10-06T20:19:40.312Z,102581.13
2022-10-06T20:22:07.229Z,102593.66
2022-10-06T20:24:35.546Z,102566.97
2022-10-06T20:27:02.388Z,102599.66
2022-10-06T20:29:29.650Z,102584.25
2022-10-06T20:31:58.982Z,102593.59
2022-10-06T20:34:32.479Z,102585.25
2022-10-06T20:37:01.914Z,102594.59
2022-10-06T20:39:48.310Z,102599.66
2022-10-06T20:42:15.693Z,102584.31
2022-10-06T20:44:43.224Z,102595.38
2022-10-06T20:47:11.672Z,102591.16
2022-10-06T20:49:38.660Z,102580.28
2022-10-06T20:52:05.742Z,102577.84
2022-10-06T20:54:35.209Z,102580.28
2022-10-06T20:57:03.770Z,102587.53
2022-10-06T20:59:30.951Z,102594.44
2022-10-06T21:02:00.228Z,102581.78
2022-10-06T21:04:27.775Z,102581.53
2022-10-06T21:06:54.788Z,102589.03
2022-10-06T21:09:21.860Z,102590.03
2022-10-06T21:11:48.732Z,102592.56
2022-10-06T21:14:15.957Z,102601.31
2022-10-06T21:16:44.094Z,102601.44
2022-10-06T21:19:18.236Z,102602.16
2022-10-06T21:21:49.907Z,102599.56
2022-10-06T21:24:16.975Z,102594.44
2022-10-06T21:26:43.898Z,102598.81
2022-10-06T21:29:13.036Z,102595.53
2022-10-06T21:31:40.128Z,102589.88
2022-10-06T21:34:07.614Z,102590.53
2022-10-06T21:36:34.492Z,102591.06
2022-10-06T21:39:01.740Z,102597.03
2022-10-06T21:41:30.554Z,102586.94
2022-10-06T21:44:05.355Z,102576.13
2022-10-06T21:46:39.834Z,102590.81
2022-10-06T21:49:09.396Z,102594.25
2022-10-06T21:51:36.433Z,102588.25
2022-10-06T21:54:03.392Z,102585.91
2022-10-06T21:56:31.473Z,102579.16
2022-10-06T21:58:58.618Z,102590.19
2022-10-06T22:01:30.473Z,102597.97
2022-10-06T22:03:58.155Z,102597.28
2022-10-06T22:06:25.149Z,102594.72
2022-10-06T22:08:52.094Z,102604.34
2022-10-06T22:11:20.793Z,102591.69
2022-10-06T22:13:49.935Z,102600.94
2022-10-06T22:16:19.076Z,102602.72
2022-10-06T22:18:46.133Z,102588.56
2022-10-06T22:21:22.994Z,102601.31
2022-10-06T22:24:00.332Z,102596.31
2022-10-06T22:26:28.494Z,102590.66
2022-10-06T22:28:56.079Z,102606.84
2022-10-06T22:31:25.999Z,102594.09
2022-10-06T22:33:57.994Z,102589.81
2022-10-06T22:36:25.474Z,102601.78
2022-10-06T22:38:52.716Z,102602.72
2022-10-06T22:41:19.634Z,102586.53
2022-10-06T22:43:46.496Z,102584.22
2022-10-06T22:46:13.784Z,102590.81
2022-10-06T22:48:40.815Z,102606.31
2022-10-06T22:51:07.932Z,102598.78
2022-10-06T22:53:35.013Z,102581.94
2022-10-06T22:56:02.294Z,102594.41
2022-10-06T22:58:29.322Z,102594.66
2022-10-06T23:00:56.311Z,102596.44
2022-10-06T23:03:23.754Z,102602.81
2022-10-06T23:05:57.635Z,102606.19
2022-10-06T23:08:24.954Z,102599.44
2022-10-06T23:10:51.873Z,102578.31
2022-10-06T23:13:19.033Z,102595.38
2022-10-06T23:15:46.074Z,102581.22
2022-10-06T23:18:13.155Z,102574.22
2022-10-06T23:20:40.153Z,102597.44
2022-10-06T23:23:07.039Z,102579.53
2022-10-06T23:25:37.653Z,102584.81
2022-10-06T23:28:04.920Z,102586.44
2022-10-06T23:30:33.918Z,102594.16
2022-10-06T23:33:00.778Z,102597.59
2022-10-06T23:35:27.632Z,102592.47
2022-10-06T23:37:54.512Z,102587.19
2022-10-06T23:40:21.358Z,102590.72
2022-10-06T23:42:48.493Z,102595.09
2022-10-06T23:45:15.435Z,102589.09
2022-10-06T23:47:42.659Z,102561.44
2022-10-06T23:50:09.873Z,102591.78
2022-10-06T23:52:37.363Z,102596.19
2022-10-06T23:55:04.632Z,102598.00
2022-10-06T23:57:31.495Z,102595.53
2022-10-06T23:59:58.373Z,102598.41
